createdAt,value
2022-09-18T00:00:56.212Z,90.10
2022-09-18T00:03:46.469Z,90.20
2022-09-18T00:06:36.376Z,90.20
2022-09-18T00:09:26.777Z,90.20
2022-09-18T00:12:15.199Z,90.50
2022-09-18T00:15:04.222Z,90.20
2022-09-18T00:17:52.720Z,90.20
2022-09-18T00:20:41.235Z,90.20
2022-09-18T00:23:31.105Z,90.20
2022-09-18T00:26:21.509Z,90.20
2022-09-18T00:29:09.899Z,90.20
2022-09-18T00:31:59.943Z,90.20
2022-09-18T00:34:48.351Z,90.30
2022-09-18T00:37:36.996Z,90.30
2022-09-18T00:40:25.165Z,90.30
2022-09-18T00:43:23.113Z,90.30
2022-09-18T00:46:23.301Z,90.30
2022-09-18T00:49:17.883Z,90.30
2022-09-18T00:52:07.108Z,90.20
2022-09-18T00:55:01.093Z,90.20
2022-09-18T00:57:54.610Z,90.20
2022-09-18T01:00:44.717Z,90.20
2022-09-18T01:03:32.992Z,90.20
2022-09-18T01:06:32.540Z,90.20
2022-09-18T01:09:30.173Z,90.20
2022-09-18T01:12:29.035Z,90.20
2022-09-18T01:15:26.132Z,90.20
2022-09-18T01:18:24.788Z,90.20
2022-09-18T01:21:15.685Z,90.20
2022-09-18T01:24:34.996Z,90.20
2022-09-18T01:27:31.589Z,90.20
2022-09-18T01:30:21.609Z,90.20
2022-09-18T01:33:13.008Z,90.20
2022-09-18T01:36:06.639Z,90.10
2022-09-18T01:39:01.254Z,90.20
2022-09-18T01:41:52.057Z,90.10
2022-09-18T01:44:44.340Z,90.10
2022-09-18T01:47:39.328Z,90.20
2022-09-18T01:50:30.309Z,90.20
2022-09-18T01:53:23.331Z,90.20
2022-09-18T01:56:15.110Z,90.20
2022-09-18T01:59:08.396Z,90.20
2022-09-18T02:02:09.560Z,90.30
2022-09-18T02:05:02.847Z,90.30
2022-09-18T02:07:56.118Z,90.30
2022-09-18T02:10:49.591Z,90.30
2022-09-18T02:13:42.107Z,90.30
2022-09-18T02:16:36.631Z,90.30
2022-09-18T02:19:29.556Z,90.20
2022-09-18T02:22:24.556Z,90.30
2022-09-18T02:25:16.582Z,90.30
2022-09-18T02:28:07.816Z,90.30
2022-09-18T02:30:58.794Z,90.30
2022-09-18T02:33:47.180Z,90.30
2022-09-18T02:37:01.745Z,90.30
2022-09-18T02:40:06.767Z,90.30
2022-09-18T02:43:09.697Z,90.30
2022-09-18T02:46:08.905Z,90.30
2022-09-18T02:49:10.150Z,90.40
2022-09-18T02:52:04.082Z,90.40
2022-09-18T02:54:58.842Z,90.40
2022-09-18T02:57:50.564Z,90.40
2022-09-18T03:00:44.391Z,90.40
2022-09-18T03:03:40.134Z,90.40
2022-09-18T03:06:31.070Z,90.40
2022-09-18T03:09:19.635Z,90.40
2022-09-18T03:12:11.304Z,90.40
2022-09-18T03:15:02.028Z,90.40
2022-09-18T03:17:50.852Z,90.40
2022-09-18T03:20:40.445Z,90.40
2022-09-18T03:23:28.634Z,90.40
2022-09-18T03:26:34.397Z,90.40
2022-09-18T03:29:24.756Z,90.50
2022-09-18T03:32:13.836Z,90.50
2022-09-18T03:35:13.337Z,90.50
2022-09-18T03:38:01.629Z,90.40
2022-09-18T03:40:52.528Z,90.50
2022-09-18T03:43:40.506Z,90.40
2022-09-18T03:46:31.880Z,90.40
2022-09-18T03:49:22.028Z,90.40
2022-09-18T03:52:10.379Z,90.40
2022-09-18T03:55:06.243Z,90.30
2022-09-18T03:58:27.175Z,90.30
2022-09-18T04:01:55.310Z,90.30
2022-09-18T04:04:49.406Z,90.30
2022-09-18T04:07:38.052Z,90.30
2022-09-18T04:10:55.232Z,90.30
2022-09-18T04:13:44.773Z,90.30
2022-09-18T04:16:35.541Z,90.30
2022-09-18T04:19:25.699Z,90.30
2022-09-18T04:22:13.926Z,90.30
2022-09-18T04:25:02.933Z,90.30
2022-09-18T04:27:52.637Z,90.30
2022-09-18T04:30:42.502Z,90.30
2022-09-18T04:33:30.464Z,90.30
2022-09-18T04:36:20.179Z,90.30
2022-09-18T04:39:08.281Z,90.30
2022-09-18T04:41:57.506Z,90.30
2022-09-18T04:44:45.486Z,90.30
2022-09-18T04:47:33.916Z,90.30
2022-09-18T04:50:22.196Z,90.30
2022-09-18T04:53:47.477Z,90.20
2022-09-18T04:56:36.426Z,90.20
2022-09-18T04:59:25.330Z,90.20
2022-09-18T05:02:17.404Z,90.20
2022-09-18T05:05:07.361Z,90.20
2022-09-18T05:07:59.534Z,90.20
2022-09-18T05:10:49.763Z,90.20
2022-09-18T05:13:39.648Z,90.20
2022-09-18T05:16:34.708Z,90.20
2022-09-18T05:19:47.243Z,90.20
2022-09-18T05:22:46.992Z,90.20
2022-09-18T05:25:41.395Z,90.20
2022-09-18T05:28:31.587Z,90.30
2022-09-18T05:31:21.115Z,90.30
2022-09-18T05:34:09.675Z,90.20
2022-09-18T05:36:57.868Z,90.20
2022-09-18T05:39:46.189Z,90.30
2022-09-18T05:42:34.563Z,90.30
2022-09-18T05:45:25.528Z,90.30
2022-09-18T05:48:14.548Z,90.30
2022-09-18T05:51:03.130Z,90.30
2022-09-18T05:53:51.401Z,90.30
2022-09-18T05:56:42.540Z,90.30
2022-09-18T05:59:32.235Z,90.30
2022-09-18T06:02:23.382Z,90.30
2022-09-18T06:05:26.596Z,90.30
2022-09-18T06:08:15.327Z,90.30
2022-09-18T06:11:04.828Z,90.30
2022-09-18T06:13:53.869Z,90.30
2022-09-18T06:16:42.715Z,90.30
2022-09-18T06:19:35.295Z,90.30
2022-09-18T06:22:23.449Z,90.30
2022-09-18T06:25:11.994Z,90.30
2022-09-18T06:28:01.615Z,90.30
2022-09-18T06:30:50.469Z,90.30
2022-09-18T06:33:39.107Z,90.30
2022-09-18T06:36:28.724Z,90.30
2022-09-18T06:39:35.804Z,90.40
2022-09-18T06:42:24.341Z,90.40
2022-09-18T06:45:30.183Z,90.40
2022-09-18T06:48:19.244Z,90.40
2022-09-18T06:51:09.849Z,90.40
2022-09-18T06:54:19.523Z,90.40
2022-09-18T06:57:08.492Z,90.40
2022-09-18T06:59:56.949Z,90.40
2022-09-18T07:02:45.663Z,90.30
2022-09-18T07:05:52.641Z,90.30
2022-09-18T07:08:53.640Z,90.30
2022-09-18T07:11:52.588Z,90.40
2022-09-18T07:14:43.503Z,90.40
2022-09-18T07:17:33.511Z,90.40
2022-09-18T07:20:23.171Z,90.40
2022-09-18T07:23:11.946Z,90.40
2022-09-18T07:26:07.250Z,90.40
2022-09-18T07:28:58.389Z,90.40
2022-09-18T07:31:54.215Z,90.50
2022-09-18T07:34:42.796Z,90.50
2022-09-18T07:37:34.400Z,90.50
2022-09-18T07:40:46.148Z,90.50
2022-09-18T07:43:45.269Z,90.50
2022-09-18T07:46:36.483Z,90.50
2022-09-18T07:49:27.986Z,90.50
2022-09-18T07:52:17.043Z,90.50
2022-09-18T07:55:09.627Z,90.50
2022-09-18T07:58:00.331Z,90.50
2022-09-18T08:01:11.570Z,90.50
2022-09-18T08:04:07.439Z,90.50
2022-09-18T08:07:14.578Z,90.50
2022-09-18T08:10:14.479Z,90.50
2022-09-18T08:13:25.506Z,90.50
2022-09-18T08:16:44.895Z,90.50
2022-09-18T08:20:00.678Z,90.50
2022-09-18T08:23:06.348Z,90.50
2022-09-18T08:25:55.376Z,90.50
2022-09-18T08:28:44.774Z,90.50
2022-09-18T08:31:33.177Z,90.50
2022-09-18T08:34:23.658Z,90.60
2022-09-18T08:37:13.858Z,90.50
2022-09-18T08:40:45.307Z,90.60
2022-09-18T08:44:02.846Z,90.50
2022-09-18T08:46:59.361Z,90.50
2022-09-18T08:49:51.135Z,90.50
2022-09-18T08:52:44.098Z,90.50
2022-09-18T08:55:59.730Z,90.50
2022-09-18T08:59:11.933Z,90.50
2022-09-18T09:02:15.123Z,90.50
2022-09-18T09:05:08.663Z,90.50
2022-09-18T09:08:36.679Z,90.50
2022-09-18T09:11:39.045Z,90.50
2022-09-18T09:14:58.216Z,90.50
2022-09-18T09:17:53.266Z,87.70
2022-09-18T09:20:51.225Z,72.90
2022-09-18T09:23:59.736Z,69.50
2022-09-18T09:27:22.552Z,73.40
2022-09-18T09:30:32.071Z,78.10
2022-09-18T09:33:38.291Z,80.50
2022-09-18T09:36:47.989Z,81.80
2022-09-18T09:39:41.919Z,82.30
2022-09-18T09:42:35.798Z,83.60
2022-09-18T09:45:29.425Z,84.50
2022-09-18T09:48:27.889Z,84.70
2022-09-18T09:51:23.514Z,85.00
2022-09-18T09:54:13.719Z,85.00
2022-09-18T09:57:13.841Z,85.10
2022-09-18T10:00:10.761Z,85.30
2022-09-18T10:03:30.488Z,85.50
2022-09-18T10:06:33.810Z,85.70
2022-09-18T10:09:35.631Z,85.90
2022-09-18T10:12:31.767Z,86.00
2022-09-18T10:15:27.158Z,86.20
2022-09-18T10:18:20.768Z,86.30
2022-09-18T10:21:12.142Z,86.50
2022-09-18T10:24:02.158Z,86.60
2022-09-18T10:26:53.996Z,86.80
2022-09-18T10:29:44.905Z,86.90
2022-09-18T10:32:41.656Z,86.90
2022-09-18T10:35:56.087Z,87.10
2022-09-18T10:38:44.677Z,87.20
2022-09-18T10:42:00.195Z,87.30
2022-09-18T10:44:57.941Z,87.40
2022-09-18T10:47:51.789Z,87.40
2022-09-18T10:50:41.625Z,87.50
2022-09-18T10:53:32.054Z,87.50
2022-09-18T10:56:28.154Z,87.60
2022-09-18T10:59:35.201Z,87.70
2022-09-18T11:02:27.807Z,87.90
2022-09-18T11:05:19.088Z,87.90
2022-09-18T11:08:18.058Z,87.90
2022-09-18T11:11:13.149Z,88.00
2022-09-18T11:14:04.068Z,87.90
2022-09-18T11:17:02.865Z,87.90
2022-09-18T11:20:01.832Z,87.90
2022-09-18T11:23:17.207Z,87.70
2022-09-18T11:26:19.560Z,87.70
2022-09-18T11:29:26.650Z,87.60
2022-09-18T11:32:19.987Z,87.70
2022-09-18T11:35:17.412Z,87.80
2022-09-18T11:38:08.343Z,87.90
2022-09-18T11:41:01.647Z,87.90
2022-09-18T11:44:03.181Z,88.00
2022-09-18T11:47:20.716Z,88.00
2022-09-18T11:50:15.739Z,88.10
2022-09-18T11:53:10.778Z,88.20
2022-09-18T11:56:07.322Z,88.20
2022-09-18T11:59:00.898Z,88.20
2022-09-18T12:01:54.013Z,88.20
2022-09-18T12:04:47.259Z,88.20
2022-09-18T12:07:43.911Z,88.20
2022-09-18T12:11:04.519Z,88.20
2022-09-18T12:14:04.416Z,88.20
2022-09-18T12:17:00.952Z,88.30
2022-09-18T12:19:56.552Z,88.30
2022-09-18T12:22:53.440Z,88.30
2022-09-18T12:25:46.900Z,88.40
2022-09-18T12:29:01.502Z,88.40
2022-09-18T12:31:59.076Z,88.50
2022-09-18T12:34:55.081Z,88.50
2022-09-18T12:38:00.842Z,88.50
2022-09-18T12:41:06.194Z,88.50
2022-09-18T12:44:21.596Z,88.50
2022-09-18T12:47:34.316Z,88.60
2022-09-18T12:50:45.676Z,89.20
2022-09-18T12:53:43.479Z,88.60
2022-09-18T12:56:49.207Z,88.70
2022-09-18T12:59:52.525Z,88.70
2022-09-18T13:02:51.685Z,88.70
2022-09-18T13:05:43.907Z,88.80
2022-09-18T13:08:40.345Z,88.80
2022-09-18T13:11:33.579Z,88.90
2022-09-18T13:14:27.816Z,88.80
2022-09-18T13:17:19.854Z,88.60
2022-09-18T13:20:15.831Z,88.70
2022-09-18T13:23:04.858Z,88.70
2022-09-18T13:25:55.300Z,88.70
2022-09-18T13:28:44.713Z,88.60
2022-09-18T13:31:34.115Z,88.50
2022-09-18T13:34:23.987Z,88.50
2022-09-18T13:37:17.834Z,88.50
2022-09-18T13:40:26.931Z,88.50
2022-09-18T13:43:30.811Z,88.60
2022-09-18T13:46:34.652Z,88.70
2022-09-18T13:49:30.084Z,88.60
2022-09-18T13:52:43.235Z,88.70
2022-09-18T13:55:51.654Z,88.80
2022-09-18T13:58:52.715Z,88.80
2022-09-18T14:02:00.528Z,88.70
2022-09-18T14:05:28.769Z,88.00
2022-09-18T14:08:38.518Z,88.10
2022-09-18T14:11:27.840Z,87.90
2022-09-18T14:14:24.134Z,87.80
2022-09-18T14:17:15.407Z,87.70
2022-09-18T14:20:18.763Z,87.70
2022-09-18T14:23:41.031Z,87.80
2022-09-18T14:26:59.710Z,87.90
2022-09-18T14:29:55.272Z,87.90
2022-09-18T14:32:48.335Z,87.90
2022-09-18T14:35:42.112Z,87.90
2022-09-18T14:38:35.476Z,88.00
2022-09-18T14:41:28.693Z,88.00
2022-09-18T14:44:18.700Z,88.00
2022-09-18T14:47:20.341Z,88.00
2022-09-18T14:50:22.616Z,88.00
2022-09-18T14:53:23.728Z,88.10
2022-09-18T14:56:16.321Z,88.80
2022-09-18T14:59:08.624Z,88.30
2022-09-18T15:02:18.868Z,88.40
2022-09-18T15:05:12.750Z,88.40
2022-09-18T15:08:05.453Z,88.50
2022-09-18T15:10:57.544Z,88.50
2022-09-18T15:13:47.160Z,88.60
2022-09-18T15:16:35.500Z,88.70
2022-09-18T15:19:25.843Z,88.70
2022-09-18T15:22:22.902Z,88.70
2022-09-18T15:25:13.863Z,88.80
2022-09-18T15:28:07.779Z,88.80
2022-09-18T15:30:59.433Z,88.90
2022-09-18T15:33:52.196Z,89.00
2022-09-18T15:36:42.370Z,89.00
2022-09-18T15:39:33.711Z,89.00
2022-09-18T15:42:31.352Z,89.00
2022-09-18T15:45:23.664Z,89.10
2022-09-18T15:48:36.125Z,89.10
2022-09-18T15:51:25.949Z,89.20
2022-09-18T15:54:27.885Z,89.20
2022-09-18T15:57:16.769Z,89.20
2022-09-18T16:00:10.644Z,89.20
2022-09-18T16:03:01.964Z,89.20
2022-09-18T16:05:55.446Z,89.30
2022-09-18T16:08:44.176Z,89.20
2022-09-18T16:11:45.946Z,89.20
2022-09-18T16:14:45.808Z,89.20
2022-09-18T16:17:40.012Z,89.10
2022-09-18T16:20:38.351Z,89.10
2022-09-18T16:23:29.821Z,89.10
2022-09-18T16:26:26.834Z,89.10
2022-09-18T16:29:21.218Z,89.20
2022-09-18T16:32:12.053Z,89.10
2022-09-18T16:35:00.672Z,89.20
2022-09-18T16:37:51.068Z,89.20
2022-09-18T16:40:41.638Z,89.20
2022-09-18T16:43:30.788Z,89.30
2022-09-18T16:46:24.050Z,89.30
2022-09-18T16:49:14.388Z,89.80
2022-09-18T16:52:03.336Z,89.30
2022-09-18T16:54:51.873Z,89.30
2022-09-18T16:57:40.655Z,89.30
2022-09-18T17:00:29.474Z,89.30
2022-09-18T17:03:19.729Z,89.30
2022-09-18T17:06:08.764Z,89.30
2022-09-18T17:08:56.983Z,89.30
2022-09-18T17:11:45.303Z,89.40
2022-09-18T17:14:34.863Z,89.40
2022-09-18T17:17:23.161Z,89.40
2022-09-18T17:20:17.947Z,89.40
2022-09-18T17:23:07.158Z,89.40
2022-09-18T17:26:05.379Z,89.50
2022-09-18T17:28:54.061Z,89.50
2022-09-18T17:31:42.628Z,89.50
2022-09-18T17:34:31.332Z,89.60
2022-09-18T17:37:21.213Z,89.60
2022-09-18T17:40:10.599Z,89.60
2022-09-18T17:42:59.466Z,89.60
2022-09-18T17:45:53.724Z,89.60
2022-09-18T17:48:42.128Z,89.60
2022-09-18T17:51:30.825Z,89.60
2022-09-18T17:54:20.670Z,89.60
2022-09-18T17:57:12.470Z,89.60
2022-09-18T18:00:00.887Z,89.50
2022-09-18T18:02:49.102Z,89.50
2022-09-18T18:05:37.128Z,89.50
2022-09-18T18:08:27.282Z,89.50
2022-09-18T18:11:20.086Z,89.50
2022-09-18T18:14:08.465Z,89.60
2022-09-18T18:16:57.072Z,89.60
2022-09-18T18:19:45.506Z,89.70
2022-09-18T18:22:34.223Z,89.70
2022-09-18T18:25:23.151Z,89.70
2022-09-18T18:28:13.229Z,89.70
2022-09-18T18:31:03.081Z,90.10
2022-09-18T18:33:51.939Z,89.80
2022-09-18T18:36:41.776Z,89.80
2022-09-18T18:39:30.685Z,89.70
2022-09-18T18:42:19.025Z,89.70
2022-09-18T18:45:11.086Z,89.70
2022-09-18T18:47:59.843Z,89.70
2022-09-18T18:50:48.474Z,89.70
2022-09-18T18:53:37.164Z,89.80
2022-09-18T18:56:25.819Z,89.70
2022-09-18T18:59:16.374Z,89.80
2022-09-18T19:02:06.970Z,89.80
2022-09-18T19:05:02.272Z,89.80
2022-09-18T19:07:52.640Z,89.90
2022-09-18T19:10:40.829Z,89.90
2022-09-18T19:13:29.673Z,89.90
2022-09-18T19:16:19.354Z,89.90
2022-09-18T19:19:09.811Z,89.90
2022-09-18T19:22:00.160Z,89.90
2022-09-18T19:24:49.131Z,89.90
2022-09-18T19:27:41.648Z,89.90
2022-09-18T19:30:29.966Z,89.90
2022-09-18T19:33:21.094Z,89.90
2022-09-18T19:36:12.120Z,89.90
2022-09-18T19:39:01.904Z,89.90
2022-09-18T19:41:55.460Z,89.90
2022-09-18T19:44:48.000Z,89.90
2022-09-18T19:47:41.092Z,89.90
2022-09-18T19:50:33.029Z,89.90
2022-09-18T19:53:23.485Z,89.90
2022-09-18T19:56:22.829Z,89.90
2022-09-18T19:59:20.294Z,90.00
2022-09-18T20:02:10.020Z,90.00
2022-09-18T20:04:58.672Z,89.90
2022-09-18T20:07:50.307Z,89.90
2022-09-18T20:10:42.238Z,89.90
2022-09-18T20:13:30.707Z,89.90
2022-09-18T20:16:20.141Z,89.90
2022-09-18T20:19:08.759Z,90.00
2022-09-18T20:21:57.261Z,89.90
2022-09-18T20:24:45.570Z,89.90
2022-09-18T20:27:39.023Z,89.90
2022-09-18T20:30:27.295Z,90.00
2022-09-18T20:33:16.828Z,89.90
2022-09-18T20:36:05.749Z,90.00
2022-09-18T20:38:58.205Z,89.90
2022-09-18T20:41:47.648Z,89.90
2022-09-18T20:44:37.518Z,89.90
2022-09-18T20:47:26.357Z,89.90
2022-09-18T20:50:17.532Z,89.90
2022-09-18T20:53:09.112Z,90.20
2022-09-18T20:56:01.043Z,89.90
2022-09-18T20:58:51.683Z,90.00
2022-09-18T21:01:42.338Z,90.00
2022-09-18T21:04:31.086Z,89.90
2022-09-18T21:07:21.616Z,89.90
2022-09-18T21:10:11.294Z,89.90
2022-09-18T21:12:59.726Z,89.90
2022-09-18T21:15:48.741Z,90.00
2022-09-18T21:18:41.072Z,90.00
2022-09-18T21:21:33.890Z,90.00
2022-09-18T21:24:22.608Z,90.00
2022-09-18T21:27:11.069Z,90.20
2022-09-18T21:29:59.371Z,90.00
2022-09-18T21:32:52.670Z,90.00
2022-09-18T21:35:55.123Z,90.00
2022-09-18T21:38:43.691Z,90.00
2022-09-18T21:41:39.615Z,90.00
2022-09-18T21:44:29.486Z,90.00
2022-09-18T21:47:18.028Z,90.00
2022-09-18T21:50:06.913Z,89.90
2022-09-18T21:52:56.742Z,89.90
2022-09-18T21:55:45.538Z,89.90
2022-09-18T21:58:37.773Z,89.90
2022-09-18T22:01:32.275Z,90.00
2022-09-18T22:04:24.432Z,90.00
2022-09-18T22:07:12.938Z,90.00
2022-09-18T22:10:02.944Z,90.00
2022-09-18T22:12:51.478Z,90.00
2022-09-18T22:15:40.321Z,90.00
2022-09-18T22:18:28.653Z,90.00
2022-09-18T22:21:20.708Z,90.00
2022-09-18T22:24:11.623Z,90.00
2022-09-18T22:27:08.692Z,90.00
2022-09-18T22:29:57.243Z,90.00
2022-09-18T22:32:48.025Z,90.00
2022-09-18T22:35:36.525Z,90.00
2022-09-18T22:38:24.909Z,90.00
2022-09-18T22:41:13.571Z,90.00
2022-09-18T22:44:03.716Z,90.00
2022-09-18T22:46:53.932Z,90.00
2022-09-18T22:49:42.471Z,90.00
2022-09-18T22:52:31.178Z,90.00
2022-09-18T22:55:19.622Z,90.00
2022-09-18T22:58:08.885Z,90.00
2022-09-18T23:01:05.981Z,90.00
2022-09-18T23:03:56.871Z,90.00
2022-09-18T23:06:45.907Z,90.00
2022-09-18T23:09:34.469Z,90.00
2022-09-18T23:12:23.137Z,90.00
2022-09-18T23:15:11.880Z,90.00
2022-09-18T23:18:01.672Z,90.00
2022-09-18T23:20:49.801Z,90.00
2022-09-18T23:23:39.615Z,90.00
2022-09-18T23:26:29.809Z,90.00
2022-09-18T23:29:21.069Z,90.10
2022-09-18T23:32:09.860Z,90.10
2022-09-18T23:35:00.032Z,90.10
2022-09-18T23:37:49.763Z,90.10
2022-09-18T23:40:37.899Z,90.10
2022-09-18T23:43:26.776Z,90.10
2022-09-18T23:46:16.085Z,90.10
2022-09-18T23:49:06.610Z,90.10
2022-09-18T23:51:57.028Z,90.10
2022-09-18T23:54:45.359Z,90.10
2022-09-18T23:57:33.537Z,90.10
